sensor_id;sensor_type;location;lat;lon;timestamp;temperature;humidity
36446;DHT22;22472;50.848;-1.216;2022-08-16T00:02:19;20.60;99.90
36446;DHT22;22472;50.848;-1.216;2022-08-16T00:04:46;20.60;99.90
36446;DHT22;22472;50.848;-1.216;2022-08-16T00:07:14;20.60;99.90
36446;DHT22;22472;50.848;-1.216;2022-08-16T00:09:41;20.60;99.90
36446;DHT22;22472;50.848;-1.216;2022-08-16T00:12:08;20.60;99.90
36446;DHT22;22472;50.848;-1.216;2022-08-16T00:14:35;20.60;99.90
36446;DHT22;22472;50.848;-1.216;2022-08-16T00:17:03;20.60;99.90
36446;DHT22;22472;50.848;-1.216;2022-08-16T00:19:32;20.70;99.90
36446;DHT22;22472;50.848;-1.216;2022-08-16T00:21:59;20.70;99.90
36446;DHT22;22472;50.848;-1.216;2022-08-16T00:24:28;20.70;99.90
36446;DHT22;22472;50.848;-1.216;2022-08-16T00:26:55;20.70;99.90
36446;DHT22;22472;50.848;-1.216;2022-08-16T00:29:22;20.70;99.90
36446;DHT22;22472;50.848;-1.216;2022-08-16T00:31:51;20.70;99.90
36446;DHT22;22472;50.848;-1.216;2022-08-16T00:34:20;20.70;99.90
36446;DHT22;22472;50.848;-1.216;2022-08-16T00:36:47;20.60;99.90
36446;DHT22;22472;50.848;-1.216;2022-08-16T00:39:16;20.60;99.90
36446;DHT22;22472;50.848;-1.216;2022-08-16T00:41:47;20.50;99.90
36446;DHT22;22472;50.848;-1.216;2022-08-16T00:44:18;20.40;99.90
36446;DHT22;22472;50.848;-1.216;2022-08-16T00:46:50;20.50;99.90
36446;DHT22;22472;50.848;-1.216;2022-08-16T00:49:19;20.50;99.90
36446;DHT22;22472;50.848;-1.216;2022-08-16T00:51:47;20.50;99.90
36446;DHT22;22472;50.848;-1.216;2022-08-16T00:54:14;20.50;99.90
36446;DHT22;22472;50.848;-1.216;2022-08-16T00:56:43;20.50;99.90
36446;DHT22;22472;50.848;-1.216;2022-08-16T00:59:13;20.50;99.90
36446;DHT22;22472;50.848;-1.216;2022-08-16T01:01:41;20.50;99.90
36446;DHT22;22472;50.848;-1.216;2022-08-16T01:04:10;20.50;99.90
36446;DHT22;22472;50.848;-1.216;2022-08-16T01:06:38;20.50;99.90
36446;DHT22;22472;50.848;-1.216;2022-08-16T01:09:05;20.50;99.90
36446;DHT22;22472;50.848;-1.216;2022-08-16T01:11:35;20.50;99.90
36446;DHT22;22472;50.848;-1.216;2022-08-16T01:14:10;20.50;99.90
36446;DHT22;22472;50.848;-1.216;2022-08-16T01:16:40;20.50;99.90
36446;DHT22;22472;50.848;-1.216;2022-08-16T01:19:15;20.40;99.90
36446;DHT22;22472;50.848;-1.216;2022-08-16T01:21:51;20.40;99.90
36446;DHT22;22472;50.848;-1.216;2022-08-16T01:24:24;20.40;99.90
36446;DHT22;22472;50.848;-1.216;2022-08-16T01:26:55;20.40;99.90
36446;DHT22;22472;50.848;-1.216;2022-08-16T01:29:27;20.30;99.90
36446;DHT22;22472;50.848;-1.216;2022-08-16T01:31:55;20.30;99.90
36446;DHT22;22472;50.848;-1.216;2022-08-16T01:34:22;20.30;99.90
36446;DHT22;22472;50.848;-1.216;2022-08-16T01:36:57;20.20;99.90
36446;DHT22;22472;50.848;-1.216;2022-08-16T01:39:26;20.20;99.90
36446;DHT22;22472;50.848;-1.216;2022-08-16T01:41:53;20.20;99.90
36446;DHT22;22472;50.848;-1.216;2022-08-16T01:44:20;20.10;99.90
36446;DHT22;22472;50.848;-1.216;2022-08-16T01:46:48;20.10;99.90
36446;DHT22;22472;50.848;-1.216;2022-08-16T01:49:25;20.20;99.90
36446;DHT22;22472;50.848;-1.216;2022-08-16T01:51:55;20.10;99.90
36446;DHT22;22472;50.848;-1.216;2022-08-16T01:54:30;20.10;99.90
36446;DHT22;22472;50.848;-1.216;2022-08-16T01:56:57;20.10;99.90
36446;DHT22;22472;50.848;-1.216;2022-08-16T01:59:24;20.00;99.90
36446;DHT22;22472;50.848;-1.216;2022-08-16T02:01:52;20.00;99.90
36446;DHT22;22472;50.848;-1.216;2022-08-16T02:04:20;20.00;99.90
36446;DHT22;22472;50.848;-1.216;2022-08-16T02:06:48;20.00;99.90
36446;DHT22;22472;50.848;-1.216;2022-08-16T02:09:18;20.00;99.90
36446;DHT22;22472;50.848;-1.216;2022-08-16T02:11:49;20.00;99.90
36446;DHT22;22472;50.848;-1.216;2022-08-16T02:14:16;19.90;99.90
36446;DHT22;22472;50.848;-1.216;2022-08-16T02:16:44;19.90;99.90
36446;DHT22;22472;50.848;-1.216;2022-08-16T02:19:11;19.80;99.90
36446;DHT22;22472;50.848;-1.216;2022-08-16T02:21:38;19.80;99.90
36446;DHT22;22472;50.848;-1.216;2022-08-16T02:24:05;19.80;99.90
36446;DHT22;22472;50.848;-1.216;2022-08-16T02:26:33;19.70;99.90
36446;DHT22;22472;50.848;-1.216;2022-08-16T02:29:01;19.70;99.90
36446;DHT22;22472;50.848;-1.216;2022-08-16T02:31:29;19.70;99.90
36446;DHT22;22472;50.848;-1.216;2022-08-16T02:33:56;19.70;99.90
36446;DHT22;22472;50.848;-1.216;2022-08-16T02:36:23;19.70;99.90
36446;DHT22;22472;50.848;-1.216;2022-08-16T02:38:50;19.60;99.90
36446;DHT22;22472;50.848;-1.216;2022-08-16T02:41:17;19.60;99.90
36446;DHT22;22472;50.848;-1.216;2022-08-16T02:43:44;19.60;99.90
36446;DHT22;22472;50.848;-1.216;2022-08-16T02:46:13;19.50;99.90
36446;DHT22;22472;50.848;-1.216;2022-08-16T02:48:40;19.50;99.90
36446;DHT22;22472;50.848;-1.216;2022-08-16T02:51:08;19.50;99.90
36446;DHT22;22472;50.848;-1.216;2022-08-16T02:53:38;19.50;99.90
36446;DHT22;22472;50.848;-1.216;2022-08-16T02:56:05;19.50;99.90
36446;DHT22;22472;50.848;-1.216;2022-08-16T02:58:34;19.60;99.90
36446;DHT22;22472;50.848;-1.216;2022-08-16T03:01:01;19.50;99.90
36446;DHT22;22472;50.848;-1.216;2022-08-16T03:03:29;19.50;99.90
36446;DHT22;22472;50.848;-1.216;2022-08-16T03:05:56;19.50;99.90
36446;DHT22;22472;50.848;-1.216;2022-08-16T03:08:23;19.40;99.90
36446;DHT22;22472;50.848;-1.216;2022-08-16T03:10:51;19.40;99.90
36446;DHT22;22472;50.848;-1.216;2022-08-16T03:13:18;19.30;99.90
36446;DHT22;22472;50.848;-1.216;2022-08-16T03:15:46;19.40;99.90
36446;DHT22;22472;50.848;-1.216;2022-08-16T03:18:13;19.40;99.90
36446;DHT22;22472;50.848;-1.216;2022-08-16T03:20:42;19.40;99.90
36446;DHT22;22472;50.848;-1.216;2022-08-16T03:23:09;19.40;99.90
36446;DHT22;22472;50.848;-1.216;2022-08-16T03:25:36;19.50;99.90
36446;DHT22;22472;50.848;-1.216;2022-08-16T03:28:04;19.50;99.90
36446;DHT22;22472;50.848;-1.216;2022-08-16T03:30:33;19.50;99.90
36446;DHT22;22472;50.848;-1.216;2022-08-16T03:33:01;19.50;99.90
36446;DHT22;22472;50.848;-1.216;2022-08-16T03:35:29;19.50;99.90
36446;DHT22;22472;50.848;-1.216;2022-08-16T03:38:02;19.40;99.90
36446;DHT22;22472;50.848;-1.216;2022-08-16T03:40:31;19.50;99.90
36446;DHT22;22472;50.848;-1.216;2022-08-16T03:42:58;19.50;99.90
36446;DHT22;22472;50.848;-1.216;2022-08-16T03:45:26;19.40;99.90
36446;DHT22;22472;50.848;-1.216;2022-08-16T03:47:52;19.40;99.90
36446;DHT22;22472;50.848;-1.216;2022-08-16T03:50:19;19.40;99.90
36446;DHT22;22472;50.848;-1.216;2022-08-16T03:52:47;19.40;99.90
36446;DHT22;22472;50.848;-1.216;2022-08-16T03:55:15;19.50;99.90
36446;DHT22;22472;50.848;-1.216;2022-08-16T03:57:43;19.50;99.90
36446;DHT22;22472;50.848;-1.216;2022-08-16T04:00:13;19.50;99.90
36446;DHT22;22472;50.848;-1.216;2022-08-16T04:02:41;19.50;99.90
36446;DHT22;22472;50.848;-1.216;2022-08-16T04:05:09;19.50;99.90
36446;DHT22;22472;50.848;-1.216;2022-08-16T04:07:37;19.40;99.90
36446;DHT22;22472;50.848;-1.216;2022-08-16T04:10:05;19.40;99.90
36446;DHT22;22472;50.848;-1.216;2022-08-16T04:12:34;19.40;99.90
36446;DHT22;22472;50.848;-1.216;2022-08-16T04:15:03;19.40;99.90
36446;DHT22;22472;50.848;-1.216;2022-08-16T04:17:31;19.40;99.90
36446;DHT22;22472;50.848;-1.216;2022-08-16T04:19:58;19.30;99.90
36446;DHT22;22472;50.848;-1.216;2022-08-16T04:22:26;19.40;99.90
36446;DHT22;22472;50.848;-1.216;2022-08-16T04:24:53;19.30;99.90
36446;DHT22;22472;50.848;-1.216;2022-08-16T04:27:21;19.30;99.90
36446;DHT22;22472;50.848;-1.216;2022-08-16T04:29:49;19.30;99.90
36446;DHT22;22472;50.848;-1.216;2022-08-16T04:32:16;19.30;99.90
36446;DHT22;22472;50.848;-1.216;2022-08-16T04:34:43;19.30;99.90
36446;DHT22;22472;50.848;-1.216;2022-08-16T04:37:10;19.40;99.90
36446;DHT22;22472;50.848;-1.216;2022-08-16T04:39:37;19.40;99.90
36446;DHT22;22472;50.848;-1.216;2022-08-16T04:42:05;19.40;99.90
36446;DHT22;22472;50.848;-1.216;2022-08-16T04:44:32;19.40;99.90
36446;DHT22;22472;50.848;-1.216;2022-08-16T04:47:00;19.40;99.90
36446;DHT22;22472;50.848;-1.216;2022-08-16T04:49:27;19.40;99.90
36446;DHT22;22472;50.848;-1.216;2022-08-16T04:51:54;19.40;99.90
36446;DHT22;22472;50.848;-1.216;2022-08-16T04:54:21;19.30;99.90
36446;DHT22;22472;50.848;-1.216;2022-08-16T04:56:49;19.40;99.90
36446;DHT22;22472;50.848;-1.216;2022-08-16T04:59:16;19.40;99.90
36446;DHT22;22472;50.848;-1.216;2022-08-16T05:01:43;19.40;99.90
36446;DHT22;22472;50.848;-1.216;2022-08-16T05:04:12;19.40;99.90
36446;DHT22;22472;50.848;-1.216;2022-08-16T05:06:39;19.40;99.90
36446;DHT22;22472;50.848;-1.216;2022-08-16T05:09:06;19.30;99.90
36446;DHT22;22472;50.848;-1.216;2022-08-16T05:11:33;19.30;99.90
36446;DHT22;22472;50.848;-1.216;2022-08-16T05:14:00;19.40;99.90
36446;DHT22;22472;50.848;-1.216;2022-08-16T05:16:29;19.40;99.90
36446;DHT22;22472;50.848;-1.216;2022-08-16T05:18:58;19.40;99.90
36446;DHT22;22472;50.848;-1.216;2022-08-16T05:21:28;19.50;99.90
36446;DHT22;22472;50.848;-1.216;2022-08-16T05:23:56;19.50;99.90
36446;DHT22;22472;50.848;-1.216;2022-08-16T05:26:24;19.50;99.90
36446;DHT22;22472;50.848;-1.216;2022-08-16T05:28:51;19.50;99.90
36446;DHT22;22472;50.848;-1.216;2022-08-16T05:31:19;19.50;99.90
36446;DHT22;22472;50.848;-1.216;2022-08-16T05:33:46;19.60;99.90
36446;DHT22;22472;50.848;-1.216;2022-08-16T05:36:13;19.60;99.90
36446;DHT22;22472;50.848;-1.216;2022-08-16T05:38:41;19.70;99.90
36446;DHT22;22472;50.848;-1.216;2022-08-16T05:41:08;19.70;99.90
36446;DHT22;22472;50.848;-1.216;2022-08-16T05:43:36;19.70;99.90
36446;DHT22;22472;50.848;-1.216;2022-08-16T05:46:03;19.70;99.90
36446;DHT22;22472;50.848;-1.216;2022-08-16T05:48:30;19.70;99.90
36446;DHT22;22472;50.848;-1.216;2022-08-16T05:50:57;19.70;99.90
36446;DHT22;22472;50.848;-1.216;2022-08-16T05:53:24;19.70;99.90
36446;DHT22;22472;50.848;-1.216;2022-08-16T05:55:52;19.80;99.90
36446;DHT22;22472;50.848;-1.216;2022-08-16T05:58:19;19.80;99.90
36446;DHT22;22472;50.848;-1.216;2022-08-16T06:00:46;19.80;99.90
36446;DHT22;22472;50.848;-1.216;2022-08-16T06:03:13;19.90;99.90
36446;DHT22;22472;50.848;-1.216;2022-08-16T06:05:40;19.90;99.90
36446;DHT22;22472;50.848;-1.216;2022-08-16T06:08:07;19.90;99.90
36446;DHT22;22472;50.848;-1.216;2022-08-16T06:10:34;20.10;99.90
36446;DHT22;22472;50.848;-1.216;2022-08-16T06:13:02;20.20;99.90
36446;DHT22;22472;50.848;-1.216;2022-08-16T06:15:29;20.20;99.90
36446;DHT22;22472;50.848;-1.216;2022-08-16T06:17:56;20.30;99.90
36446;DHT22;22472;50.848;-1.216;2022-08-16T06:20:26;20.30;99.90
36446;DHT22;22472;50.848;-1.216;2022-08-16T06:22:55;20.40;99.90
36446;DHT22;22472;50.848;-1.216;2022-08-16T06:25:22;20.50;99.90
36446;DHT22;22472;50.848;-1.216;2022-08-16T06:27:50;20.50;99.90
36446;DHT22;22472;50.848;-1.216;2022-08-16T06:30:19;20.50;99.90
36446;DHT22;22472;50.848;-1.216;2022-08-16T06:32:47;20.60;99.90
36446;DHT22;22472;50.848;-1.216;2022-08-16T06:35:14;20.60;99.90
36446;DHT22;22472;50.848;-1.216;2022-08-16T06:37:42;20.60;99.90
36446;DHT22;22472;50.848;-1.216;2022-08-16T06:40:10;20.70;99.90
36446;DHT22;22472;50.848;-1.216;2022-08-16T06:42:37;20.60;99.90
36446;DHT22;22472;50.848;-1.216;2022-08-16T06:45:05;20.70;99.90
36446;DHT22;22472;50.848;-1.216;2022-08-16T06:47:34;20.70;99.90
36446;DHT22;22472;50.848;-1.216;2022-08-16T06:50:01;20.80;99.90
36446;DHT22;22472;50.848;-1.216;2022-08-16T06:52:28;20.80;99.90
36446;DHT22;22472;50.848;-1.216;2022-08-16T06:55:02;20.90;99.90
36446;DHT22;22472;50.848;-1.216;2022-08-16T06:57:29;20.90;99.90
36446;DHT22;22472;50.848;-1.216;2022-08-16T06:59:57;21.00;99.90
36446;DHT22;22472;50.848;-1.216;2022-08-16T07:02:24;21.00;99.90
36446;DHT22;22472;50.848;-1.216;2022-08-16T07:04:52;21.10;99.90
36446;DHT22;22472;50.848;-1.216;2022-08-16T07:07:19;21.20;99.90
36446;DHT22;22472;50.848;-1.216;2022-08-16T07:09:46;21.20;99.90
36446;DHT22;22472;50.848;-1.216;2022-08-16T07:12:14;21.20;99.90
36446;DHT22;22472;50.848;-1.216;2022-08-16T07:14:41;21.20;99.90
36446;DHT22;22472;50.848;-1.216;2022-08-16T07:17:09;21.30;99.90
36446;DHT22;22472;50.848;-1.216;2022-08-16T07:19:36;21.20;99.90
36446;DHT22;22472;50.848;-1.216;2022-08-16T07:22:06;21.20;99.90
36446;DHT22;22472;50.848;-1.216;2022-08-16T07:24:33;21.20;99.90
36446;DHT22;22472;50.848;-1.216;2022-08-16T07:27:00;21.20;99.90
36446;DHT22;22472;50.848;-1.216;2022-08-16T07:29:28;21.20;99.90
36446;DHT22;22472;50.848;-1.216;2022-08-16T07:31:55;21.20;99.90
36446;DHT22;22472;50.848;-1.216;2022-08-16T07:34:22;21.20;99.90
36446;DHT22;22472;50.848;-1.216;2022-08-16T07:36:49;21.20;99.90
36446;DHT22;22472;50.848;-1.216;2022-08-16T07:39:18;21.20;99.90
36446;DHT22;22472;50.848;-1.216;2022-08-16T07:41:45;21.10;99.90
36446;DHT22;22472;50.848;-1.216;2022-08-16T07:44:12;21.10;99.90
36446;DHT22;22472;50.848;-1.216;2022-08-16T07:46:39;21.10;99.90
36446;DHT22;22472;50.848;-1.216;2022-08-16T07:49:06;21.10;99.90
36446;DHT22;22472;50.848;-1.216;2022-08-16T07:51:34;21.10;99.90
36446;DHT22;22472;50.848;-1.216;2022-08-16T07:54:02;21.10;99.90
36446;DHT22;22472;50.848;-1.216;2022-08-16T07:56:30;21.10;99.90
36446;DHT22;22472;50.848;-1.216;2022-08-16T07:58:57;21.10;99.90
36446;DHT22;22472;50.848;-1.216;2022-08-16T08:01:26;21.10;99.90
36446;DHT22;22472;50.848;-1.216;2022-08-16T08:03:55;21.20;99.90
36446;DHT22;22472;50.848;-1.216;2022-08-16T08:06:23;21.20;99.90
36446;DHT22;22472;50.848;-1.216;2022-08-16T08:08:52;21.30;99.90
36446;DHT22;22472;50.848;-1.216;2022-08-16T08:11:21;21.20;99.90
36446;DHT22;22472;50.848;-1.216;2022-08-16T08:13:50;21.30;99.90
36446;DHT22;22472;50.848;-1.216;2022-08-16T08:16:18;21.20;99.90
36446;DHT22;22472;50.848;-1.216;2022-08-16T08:18:45;21.30;99.90
36446;DHT22;22472;50.848;-1.216;2022-08-16T08:21:13;21.30;99.90
36446;DHT22;22472;50.848;-1.216;2022-08-16T08:23:40;21.40;99.90
36446;DHT22;22472;50.848;-1.216;2022-08-16T08:26:07;21.40;99.90
36446;DHT22;22472;50.848;-1.216;2022-08-16T08:28:34;21.50;99.90
36446;DHT22;22472;50.848;-1.216;2022-08-16T08:31:02;21.50;99.90
36446;DHT22;22472;50.848;-1.216;2022-08-16T08:33:30;21.70;99.90
36446;DHT22;22472;50.848;-1.216;2022-08-16T08:35:58;21.70;99.90
36446;DHT22;22472;50.848;-1.216;2022-08-16T08:38:26;21.70;99.90
36446;DHT22;22472;50.848;-1.216;2022-08-16T08:40:55;21.70;99.90
36446;DHT22;22472;50.848;-1.216;2022-08-16T08:43:22;21.80;99.90
36446;DHT22;22472;50.848;-1.216;2022-08-16T08:45:50;21.80;99.90
36446;DHT22;22472;50.848;-1.216;2022-08-16T08:48:20;21.90;99.90
36446;DHT22;22472;50.848;-1.216;2022-08-16T08:50:47;22.10;99.90
36446;DHT22;22472;50.848;-1.216;2022-08-16T08:53:15;22.20;99.90
36446;DHT22;22472;50.848;-1.216;2022-08-16T08:55:42;22.30;99.90
36446;DHT22;22472;50.848;-1.216;2022-08-16T08:58:09;22.30;99.90
36446;DHT22;22472;50.848;-1.216;2022-08-16T09:00:37;22.30;99.90
36446;DHT22;22472;50.848;-1.216;2022-08-16T09:03:04;22.30;99.90
36446;DHT22;22472;50.848;-1.216;2022-08-16T09:05:33;22.40;99.90
36446;DHT22;22472;50.848;-1.216;2022-08-16T09:08:00;22.40;99.90
36446;DHT22;22472;50.848;-1.216;2022-08-16T09:10:28;22.60;99.90
36446;DHT22;22472;50.848;-1.216;2022-08-16T09:12:55;22.50;99.90
36446;DHT22;22472;50.848;-1.216;2022-08-16T09:15:22;22.50;99.90
36446;DHT22;22472;50.848;-1.216;2022-08-16T09:17:51;22.70;99.90
36446;DHT22;22472;50.848;-1.216;2022-08-16T09:20:22;22.90;99.90
36446;DHT22;22472;50.848;-1.216;2022-08-16T09:22:51;22.90;99.90
36446;DHT22;22472;50.848;-1.216;2022-08-16T09:25:18;22.90;99.90
36446;DHT22;22472;50.848;-1.216;2022-08-16T09:27:45;22.90;99.90
36446;DHT22;22472;50.848;-1.216;2022-08-16T09:30:12;23.10;99.90
36446;DHT22;22472;50.848;-1.216;2022-08-16T09:32:39;23.20;99.90
36446;DHT22;22472;50.848;-1.216;2022-08-16T09:35:07;23.30;99.90
36446;DHT22;22472;50.848;-1.216;2022-08-16T09:37:34;23.50;99.90
36446;DHT22;22472;50.848;-1.216;2022-08-16T09:40:04;23.80;99.90
36446;DHT22;22472;50.848;-1.216;2022-08-16T09:42:32;23.90;99.90
36446;DHT22;22472;50.848;-1.216;2022-08-16T09:44:59;24.00;99.90
36446;DHT22;22472;50.848;-1.216;2022-08-16T09:47:26;24.00;99.90
36446;DHT22;22472;50.848;-1.216;2022-08-16T09:49:53;24.00;99.90
36446;DHT22;22472;50.848;-1.216;2022-08-16T09:52:20;23.80;99.90
36446;DHT22;22472;50.848;-1.216;2022-08-16T09:54:47;23.70;99.90
36446;DHT22;22472;50.848;-1.216;2022-08-16T09:57:16;23.50;99.90
36446;DHT22;22472;50.848;-1.216;2022-08-16T09:59:43;23.30;99.90
36446;DHT22;22472;50.848;-1.216;2022-08-16T10:02:10;23.20;99.90
36446;DHT22;22472;50.848;-1.216;2022-08-16T10:04:37;23.00;99.90
36446;DHT22;22472;50.848;-1.216;2022-08-16T10:07:04;22.80;99.90
36446;DHT22;22472;50.848;-1.216;2022-08-16T10:09:31;22.70;99.90
36446;DHT22;22472;50.848;-1.216;2022-08-16T10:11:58;22.50;99.90
36446;DHT22;22472;50.848;-1.216;2022-08-16T10:14:45;22.40;99.90
36446;DHT22;22472;50.848;-1.216;2022-08-16T10:17:12;22.30;99.90
36446;DHT22;22472;50.848;-1.216;2022-08-16T10:19:39;22.30;99.90
36446;DHT22;22472;50.848;-1.216;2022-08-16T10:22:06;22.30;99.90
36446;DHT22;22472;50.848;-1.216;2022-08-16T10:24:33;22.30;99.90
36446;DHT22;22472;50.848;-1.216;2022-08-16T10:27:00;22.40;99.90
36446;DHT22;22472;50.848;-1.216;2022-08-16T10:29:27;22.50;99.90
36446;DHT22;22472;50.848;-1.216;2022-08-16T10:31:56;22.70;99.90
36446;DHT22;22472;50.848;-1.216;2022-08-16T10:34:23;22.80;99.90
36446;DHT22;22472;50.848;-1.216;2022-08-16T10:36:50;23.10;99.90
36446;DHT22;22472;50.848;-1.216;2022-08-16T10:39:17;23.40;99.90
36446;DHT22;22472;50.848;-1.216;2022-08-16T10:41:44;24.00;99.90
36446;DHT22;22472;50.848;-1.216;2022-08-16T10:44:11;25.10;99.90
36446;DHT22;22472;50.848;-1.216;2022-08-16T10:46:39;25.20;99.90
36446;DHT22;22472;50.848;-1.216;2022-08-16T10:49:08;25.10;99.90
36446;DHT22;22472;50.848;-1.216;2022-08-16T10:51:35;25.40;99.90
36446;DHT22;22472;50.848;-1.216;2022-08-16T10:54:04;25.50;99.90
36446;DHT22;22472;50.848;-1.216;2022-08-16T10:56:32;26.10;99.90
36446;DHT22;22472;50.848;-1.216;2022-08-16T10:58:59;26.10;99.90
36446;DHT22;22472;50.848;-1.216;2022-08-16T11:01:26;26.20;99.90
36446;DHT22;22472;50.848;-1.216;2022-08-16T11:03:53;26.40;99.90
36446;DHT22;22472;50.848;-1.216;2022-08-16T11:06:22;26.60;99.90
36446;DHT22;22472;50.848;-1.216;2022-08-16T11:08:49;27.30;99.90
36446;DHT22;22472;50.848;-1.216;2022-08-16T11:11:16;27.30;99.90
36446;DHT22;22472;50.848;-1.216;2022-08-16T11:13:43;27.40;99.90
36446;DHT22;22472;50.848;-1.216;2022-08-16T11:16:13;27.20;99.90
36446;DHT22;22472;50.848;-1.216;2022-08-16T11:18:40;27.40;99.90
36446;DHT22;22472;50.848;-1.216;2022-08-16T11:21:07;28.20;99.90
36446;DHT22;22472;50.848;-1.216;2022-08-16T11:23:35;28.20;99.90
36446;DHT22;22472;50.848;-1.216;2022-08-16T11:26:03;28.30;99.90
36446;DHT22;22472;50.848;-1.216;2022-08-16T11:28:30;28.90;99.90
36446;DHT22;22472;50.848;-1.216;2022-08-16T11:30:57;28.90;99.90
36446;DHT22;22472;50.848;-1.216;2022-08-16T11:33:25;29.00;99.90
36446;DHT22;22472;50.848;-1.216;2022-08-16T11:35:52;29.00;99.90
36446;DHT22;22472;50.848;-1.216;2022-08-16T11:38:21;29.00;99.90
36446;DHT22;22472;50.848;-1.216;2022-08-16T11:40:52;28.70;99.90
36446;DHT22;22472;50.848;-1.216;2022-08-16T11:43:24;28.40;99.90
36446;DHT22;22472;50.848;-1.216;2022-08-16T11:45:51;28.30;99.90
36446;DHT22;22472;50.848;-1.216;2022-08-16T11:48:21;28.00;99.90
36446;DHT22;22472;50.848;-1.216;2022-08-16T11:50:48;27.90;99.90
36446;DHT22;22472;50.848;-1.216;2022-08-16T11:53:15;27.80;99.90
36446;DHT22;22472;50.848;-1.216;2022-08-16T11:55:43;27.70;99.90
36446;DHT22;22472;50.848;-1.216;2022-08-16T11:58:11;27.70;99.90
36446;DHT22;22472;50.848;-1.216;2022-08-16T12:00:43;27.50;99.90
36446;DHT22;22472;50.848;-1.216;2022-08-16T12:03:10;27.20;99.90
36446;DHT22;22472;50.848;-1.216;2022-08-16T12:05:40;27.10;99.90
36446;DHT22;22472;50.848;-1.216;2022-08-16T12:08:08;27.00;99.90
36446;DHT22;22472;50.848;-1.216;2022-08-16T12:10:37;26.80;99.90
36446;DHT22;22472;50.848;-1.216;2022-08-16T12:13:05;26.70;99.90
36446;DHT22;22472;50.848;-1.216;2022-08-16T12:15:34;26.50;99.90
36446;DHT22;22472;50.848;-1.216;2022-08-16T12:18:01;26.30;99.90
36446;DHT22;22472;50.848;-1.216;2022-08-16T12:20:32;26.20;99.90
36446;DHT22;22472;50.848;-1.216;2022-08-16T12:22:59;26.10;99.90
36446;DHT22;22472;50.848;-1.216;2022-08-16T12:25:28;25.80;99.90
36446;DHT22;22472;50.848;-1.216;2022-08-16T12:27:56;25.70;99.90
36446;DHT22;22472;50.848;-1.216;2022-08-16T12:30:25;25.60;99.90
36446;DHT22;22472;50.848;-1.216;2022-08-16T12:32:54;25.50;99.90
36446;DHT22;22472;50.848;-1.216;2022-08-16T12:35:22;25.40;99.90
36446;DHT22;22472;50.848;-1.216;2022-08-16T12:37:50;25.30;99.90
36446;DHT22;22472;50.848;-1.216;2022-08-16T12:40:21;25.30;99.90
36446;DHT22;22472;50.848;-1.216;2022-08-16T12:42:50;25.50;99.90
36446;DHT22;22472;50.848;-1.216;2022-08-16T12:45:19;25.60;99.90
36446;DHT22;22472;50.848;-1.216;2022-08-16T12:47:46;25.50;99.90
36446;DHT22;22472;50.848;-1.216;2022-08-16T12:50:32;25.60;99.90
36446;DHT22;22472;50.848;-1.216;2022-08-16T12:52:59;25.60;99.90
36446;DHT22;22472;50.848;-1.216;2022-08-16T12:55:27;25.40;99.90
36446;DHT22;22472;50.848;-1.216;2022-08-16T12:57:56;25.30;99.90
36446;DHT22;22472;50.848;-1.216;2022-08-16T13:00:25;25.30;99.90
36446;DHT22;22472;50.848;-1.216;2022-08-16T13:02:56;25.30;99.90
36446;DHT22;22472;50.848;-1.216;2022-08-16T13:05:24;25.20;99.90
36446;DHT22;22472;50.848;-1.216;2022-08-16T13:07:52;25.20;99.90
36446;DHT22;22472;50.848;-1.216;2022-08-16T13:10:23;25.30;99.90
36446;DHT22;22472;50.848;-1.216;2022-08-16T13:12:53;25.30;99.90
36446;DHT22;22472;50.848;-1.216;2022-08-16T13:15:23;25.40;99.90
36446;DHT22;22472;50.848;-1.216;2022-08-16T13:17:50;25.50;99.90
36446;DHT22;22472;50.848;-1.216;2022-08-16T13:20:21;25.50;99.90
36446;DHT22;22472;50.848;-1.216;2022-08-16T13:22:52;25.60;99.90
36446;DHT22;22472;50.848;-1.216;2022-08-16T13:25:23;25.60;99.90
36446;DHT22;22472;50.848;-1.216;2022-08-16T13:27:52;25.60;99.90
36446;DHT22;22472;50.848;-1.216;2022-08-16T13:30:20;25.50;99.90
36446;DHT22;22472;50.848;-1.216;2022-08-16T13:32:49;25.30;99.90
36446;DHT22;22472;50.848;-1.216;2022-08-16T13:35:16;25.30;99.90
36446;DHT22;22472;50.848;-1.216;2022-08-16T13:37:43;25.30;99.90
36446;DHT22;22472;50.848;-1.216;2022-08-16T13:40:11;25.30;99.90
36446;DHT22;22472;50.848;-1.216;2022-08-16T13:42:39;25.50;99.90
36446;DHT22;22472;50.848;-1.216;2022-08-16T13:45:09;25.30;99.90
36446;DHT22;22472;50.848;-1.216;2022-08-16T13:47:37;25.20;99.90
36446;DHT22;22472;50.848;-1.216;2022-08-16T13:50:05;25.00;99.90
36446;DHT22;22472;50.848;-1.216;2022-08-16T13:52:32;24.80;99.90
36446;DHT22;22472;50.848;-1.216;2022-08-16T13:54:59;24.60;99.90
36446;DHT22;22472;50.848;-1.216;2022-08-16T13:57:27;24.50;99.90
36446;DHT22;22472;50.848;-1.216;2022-08-16T13:59:55;24.20;99.90
36446;DHT22;22472;50.848;-1.216;2022-08-16T14:02:22;24.00;99.90
36446;DHT22;22472;50.848;-1.216;2022-08-16T14:04:49;24.00;99.90
36446;DHT22;22472;50.848;-1.216;2022-08-16T14:07:16;24.10;99.90
36446;DHT22;22472;50.848;-1.216;2022-08-16T14:09:43;24.10;99.90
36446;DHT22;22472;50.848;-1.216;2022-08-16T14:12:19;24.10;99.90
36446;DHT22;22472;50.848;-1.216;2022-08-16T14:14:48;24.30;99.90
36446;DHT22;22472;50.848;-1.216;2022-08-16T14:17:19;24.60;99.90
36446;DHT22;22472;50.848;-1.216;2022-08-16T14:19:47;25.20;99.90
36446;DHT22;22472;50.848;-1.216;2022-08-16T14:22:16;25.50;99.90
36446;DHT22;22472;50.848;-1.216;2022-08-16T14:24:44;25.60;99.90
36446;DHT22;22472;50.848;-1.216;2022-08-16T14:27:11;25.60;99.90
36446;DHT22;22472;50.848;-1.216;2022-08-16T14:29:38;25.40;99.90
36446;DHT22;22472;50.848;-1.216;2022-08-16T14:32:06;25.30;99.90
36446;DHT22;22472;50.848;-1.216;2022-08-16T14:34:35;25.10;99.90
36446;DHT22;22472;50.848;-1.216;2022-08-16T14:37:02;24.90;99.90
36446;DHT22;22472;50.848;-1.216;2022-08-16T14:39:30;24.80;99.90
36446;DHT22;22472;50.848;-1.216;2022-08-16T14:42:03;24.90;99.90
36446;DHT22;22472;50.848;-1.216;2022-08-16T14:44:31;24.80;99.90
36446;DHT22;22472;50.848;-1.216;2022-08-16T14:46:58;24.50;99.90
36446;DHT22;22472;50.848;-1.216;2022-08-16T14:49:25;24.30;99.90
36446;DHT22;22472;50.848;-1.216;2022-08-16T14:51:58;24.30;99.90
36446;DHT22;22472;50.848;-1.216;2022-08-16T14:54:26;24.30;99.90
36446;DHT22;22472;50.848;-1.216;2022-08-16T14:56:53;24.20;99.90
36446;DHT22;22472;50.848;-1.216;2022-08-16T14:59:20;24.10;99.90
36446;DHT22;22472;50.848;-1.216;2022-08-16T15:01:47;24.00;99.90
36446;DHT22;22472;50.848;-1.216;2022-08-16T15:04:14;23.90;99.90
36446;DHT22;22472;50.848;-1.216;2022-08-16T15:06:41;23.90;99.90
36446;DHT22;22472;50.848;-1.216;2022-08-16T15:09:09;24.00;99.90
36446;DHT22;22472;50.848;-1.216;2022-08-16T15:11:37;24.10;99.90
36446;DHT22;22472;50.848;-1.216;2022-08-16T15:14:04;24.40;99.90
36446;DHT22;22472;50.848;-1.216;2022-08-16T15:16:31;24.80;99.90
36446;DHT22;22472;50.848;-1.216;2022-08-16T15:18:59;25.00;99.90
36446;DHT22;22472;50.848;-1.216;2022-08-16T15:21:26;25.10;99.90